Albion, Maine
Current Conditions -  °F | °C
As of 2:15 PM on Friday 31 Oct 2014 (Local Time) from KWVL Reporting Station
Clear Clear  
Wind Chill: 50°   Ceiling: Unl
Heat Index: 50°   Visibility: 10mi
Dew Point: 28°   Wind: 0mph
Humidity: 43%   Direction: NA
Pressure: 29.99"   Gusts: NA
Location:  44.53°N, 69.44°W
Report Text: KWVL 311815Z 00000KT 10SM CLR 10/M02 A2999 RMK AO1
Loading
Personal Weather Stations






























Interactive Weather Map
Tropical Storm Tracking
New forecast layout! Learn more

10-Day Weather Forecast

Advertisements
Track Severe Weather on mobile